»·PEaware :: N1BF KPDX-KMFR

N1BF :: KPDX-KMFR

FLIGHT INFORMATION

Flight Status: Arrived
Operator: Privately registered:
United States
More flights under this callsign
Pilot: Ben F. (2808)
Aircraft: BOEING 737-200
(B732)
More flights by this aircraft type
Origin: KPDX Portland Intl
United States
Destination: KMFR Rogue Valley Intl-Medford
United States
More flights between these airports :: More routes between these airports
Route: +PTLD1 EUG OED
File this flight plan on PilotEdge
Remarks:
Altitude:
(Current/Filed)
23,000ft
Speed:
(Current/Filed)
412kts
Departed: 25-Aug-19 10:40 AM
Arrived: 25-Aug-19 11:16 AM
Distance/Time
Traveled:
193nm/0:36
Distance/Time
To Go:
Arrived

Flight Plot

Page will automatically refresh every two minutes.


Map Options




Map Legend


Flown Route
Filed Route
Departure Airport
Arrival Airport
Navaid (VOR, NDB)
Fix

Horizontal Profiles

Position Reports

Time Latitude Longitude Heading Altitude Ground
Speed
25-Aug-19 10:07 45.587593 -122.583262 209 38ft 0kts
25-Aug-19 10:08 45.587593 -122.583262 209 38ft 0kts
25-Aug-19 10:09 45.587593 -122.583262 209 38ft 0kts
25-Aug-19 10:10 45.587593 -122.583262 209 38ft 0kts
25-Aug-19 10:11 45.587593 -122.583262 209 38ft 0kts
25-Aug-19 10:12 45.587593 -122.583262 209 38ft 0kts
25-Aug-19 10:13 45.587593 -122.583262 209 38ft 0kts
25-Aug-19 10:14 45.587593 -122.583262 209 38ft 0kts
25-Aug-19 10:15 45.587593 -122.583262 209 38ft 0kts
25-Aug-19 10:16 45.587593 -122.583262 209 38ft 0kts
25-Aug-19 10:17 45.587593 -122.583262 209 38ft 0kts
25-Aug-19 10:18 45.587593 -122.583262 209 38ft 0kts
25-Aug-19 10:19 45.587593 -122.583262 209 38ft 0kts
25-Aug-19 10:20 45.587593 -122.583262 209 38ft 0kts
25-Aug-19 10:21 45.587593 -122.583262 209 38ft 0kts
25-Aug-19 10:22 45.587593 -122.583262 209 38ft 0kts
25-Aug-19 10:23 45.587593 -122.583262 209 38ft 0kts
25-Aug-19 10:24 45.587593 -122.583262 209 38ft 0kts
25-Aug-19 10:25 45.587593 -122.583262 209 38ft 0kts
25-Aug-19 10:26 45.587593 -122.583262 209 38ft 0kts
25-Aug-19 10:27 45.587593 -122.583262 209 38ft 0kts
25-Aug-19 10:28 45.587593 -122.583262 209 38ft 0kts
25-Aug-19 10:29 45.587593 -122.583262 209 38ft 0kts
25-Aug-19 10:30 45.587593 -122.583262 209 38ft 0kts
25-Aug-19 10:31 45.587593 -122.583262 209 38ft 0kts
25-Aug-19 10:32 45.587516 -122.583409 292 38ft 1kts
25-Aug-19 10:33 45.587613 -122.583370 50 38ft 0kts
25-Aug-19 10:34 45.587614 -122.583370 50 38ft 0kts
25-Aug-19 10:35 45.589451 -122.585112 299 38ft 24kts
25-Aug-19 10:36 45.593003 -122.594241 298 38ft 25kts
25-Aug-19 10:38 45.595439 -122.600684 27 38ft 0kts
25-Aug-19 10:39 45.596200 -122.599988 47 38ft 14kts
25-Aug-19 10:40 45.586496 -122.574259 119 430ft 169kts
25-Aug-19 10:41 45.562069 -122.509415 117 3348ft 192kts
25-Aug-19 10:42 45.532048 -122.430181 122 5780ft 251kts
25-Aug-19 10:43 45.464296 -122.419076 199 8670ft 277kts
25-Aug-19 10:44 45.383085 -122.454546 201 11480ft 307kts
25-Aug-19 10:45 45.292576 -122.497649 206 13631ft 348kts
25-Aug-19 10:46 45.200512 -122.551288 210 16274ft 356kts
25-Aug-19 10:47 45.107047 -122.611142 213 18533ft 364kts
25-Aug-19 10:48 45.012160 -122.674285 212 20468ft 375kts
25-Aug-19 10:49 44.913555 -122.736445 211 22143ft 386kts
25-Aug-19 10:50 44.814959 -122.797710 211 23218ft 404kts
25-Aug-19 10:51 44.706313 -122.866143 210 23235ft 441kts
25-Aug-19 10:52 44.590967 -122.937333 210 23230ft 445kts
25-Aug-19 10:53 44.475297 -123.008922 210 23233ft 446kts
25-Aug-19 10:54 44.359538 -123.080980 210 23229ft 447kts
25-Aug-19 10:54 44.262364 -123.141102 210 23228ft 448kts
25-Aug-19 10:56 44.124934 -123.215339 190 23225ft 456kts
25-Aug-19 10:57 43.994987 -123.198312 178 23228ft 460kts
25-Aug-19 10:57 43.890966 -123.182818 178 23227ft 457kts
25-Aug-19 10:59 43.741841 -123.154888 176 23206ft 455kts
25-Aug-19 11:00 43.614962 -123.129750 176 23179ft 449kts
25-Aug-19 11:00 43.511496 -123.109892 177 21700ft 437kts
25-Aug-19 11:01 43.391932 -123.087247 177 19762ft 413kts
25-Aug-19 11:03 43.259451 -123.062475 177 17387ft 392kts
25-Aug-19 11:03 43.169309 -123.045845 177 15730ft 379kts
25-Aug-19 11:04 43.064167 -123.026291 176 13778ft 365kts
25-Aug-19 11:05 42.963223 -123.007337 176 12076ft 346kts
25-Aug-19 11:06 42.873467 -122.990719 175 11001ft 319kts
25-Aug-19 11:07 42.791190 -122.975944 174 9496ft 276kts
25-Aug-19 11:08 42.712961 -122.961812 172 8033ft 279kts
25-Aug-19 11:09 42.634997 -122.949201 178 6765ft 275kts
25-Aug-19 11:10 42.561102 -122.959760 190 5217ft 254kts
25-Aug-19 11:11 42.500089 -122.939030 158 3809ft 201kts
25-Aug-19 11:12 42.456307 -122.915873 159 2820ft 141kts
25-Aug-19 11:13 42.417934 -122.895608 159 2062ft 146kts
25-Aug-19 11:14 42.381473 -122.876678 158 1342ft 121kts
25-Aug-19 11:15 42.369564 -122.871216 239 1342ft 10kts
25-Aug-19 11:16 42.370486 -122.872485 339 1342ft 8kts
25-Aug-19 11:17 42.372054 -122.873742 289 1342ft 6kts
25-Aug-19 11:18 42.371655 -122.875375 201 1342ft 0kts
25-Aug-19 11:19 42.371655 -122.875375 201 1342ft 0kts
25-Aug-19 11:20 42.371655 -122.875375 201 1342ft 0kts
25-Aug-19 11:21 42.371761 -122.876442 291 1342ft 9kts
25-Aug-19 11:22 42.372128 -122.878006 208 1342ft 0kts

Navigation Log

Ident Type
Flight plan parsing failed, navigation log unavailable